createdAt,value
2019-03-19T00:01:42.945Z,14.33
2019-03-19T00:04:33.334Z,13.23
2019-03-19T00:07:22.250Z,10.87
2019-03-19T00:10:11.696Z,14.23
2019-03-19T00:13:00.837Z,13.20
2019-03-19T00:15:50.445Z,12.10
2019-03-19T00:18:39.690Z,11.87
2019-03-19T00:21:28.560Z,15.37
2019-03-19T00:24:17.382Z,12.00
2019-03-19T00:27:06.429Z,13.80
2019-03-19T00:29:55.449Z,12.03
2019-03-19T00:32:44.218Z,14.03
2019-03-19T00:35:33.482Z,15.10
2019-03-19T00:38:22.483Z,14.00
2019-03-19T00:41:11.847Z,15.73
2019-03-19T00:44:01.084Z,12.83
2019-03-19T00:46:49.912Z,10.57
2019-03-19T00:49:39.136Z,12.63
2019-03-19T00:52:28.068Z,14.23
2019-03-19T00:55:17.209Z,18.10
2019-03-19T00:58:06.419Z,8.80
2019-03-19T01:00:55.924Z,11.43
2019-03-19T01:03:45.048Z,12.23
2019-03-19T01:06:34.019Z,8.27
2019-03-19T01:09:22.571Z,12.00
2019-03-19T01:12:11.245Z,11.43
2019-03-19T01:15:00.428Z,14.43
2019-03-19T01:17:48.841Z,15.87
2019-03-19T01:20:18.953Z,14.27
2019-03-19T01:23:08.043Z,12.80
2019-03-19T01:25:57.437Z,16.40
2019-03-19T01:28:46.668Z,11.53
2019-03-19T01:31:35.751Z,18.63
2019-03-19T01:34:24.406Z,20.60
2019-03-19T01:36:57.736Z,15.20
2019-03-19T01:39:47.177Z,13.07
2019-03-19T01:42:36.424Z,11.87
2019-03-19T01:45:25.022Z,10.90
2019-03-19T01:48:13.716Z,13.07
2019-03-19T01:51:02.784Z,8.03
2019-03-19T01:53:51.407Z,14.27
2019-03-19T01:56:40.637Z,18.53
2019-03-19T01:59:28.963Z,13.93
2019-03-19T02:02:17.390Z,17.93
2019-03-19T02:05:06.702Z,10.63
2019-03-19T02:07:56.840Z,9.50
2019-03-19T02:10:45.633Z,11.90
2019-03-19T02:13:34.457Z,16.77
2019-03-19T02:16:23.322Z,17.70
2019-03-19T02:19:12.729Z,18.60
2019-03-19T02:22:02.251Z,14.43
2019-03-19T02:24:50.961Z,12.63
2019-03-19T02:27:39.941Z,13.47
2019-03-19T02:30:29.148Z,14.10
2019-03-19T02:33:03.266Z,17.20
2019-03-19T02:35:52.647Z,15.70
2019-03-19T02:38:41.267Z,13.60
2019-03-19T02:41:30.554Z,16.10
2019-03-19T02:44:19.514Z,13.77
2019-03-19T02:47:08.149Z,11.87
2019-03-19T02:49:56.696Z,13.20
2019-03-19T02:52:45.669Z,12.93
2019-03-19T02:55:35.042Z,13.37
2019-03-19T02:58:24.301Z,24.53
2019-03-19T03:01:12.908Z,20.50
2019-03-19T03:04:02.309Z,26.43
2019-03-19T03:06:50.635Z,15.43
2019-03-19T03:09:39.978Z,15.53
2019-03-19T03:12:29.376Z,15.23
2019-03-19T03:15:17.972Z,11.43
2019-03-19T03:18:07.214Z,14.33
2019-03-19T03:20:56.680Z,16.40
2019-03-19T03:23:45.131Z,12.43
2019-03-19T03:26:47.057Z,9.43
2019-03-19T03:29:24.301Z,16.60
2019-03-19T03:32:12.902Z,15.43
2019-03-19T03:35:01.831Z,12.70
2019-03-19T03:37:50.467Z,12.87
2019-03-19T03:40:39.604Z,16.83
2019-03-19T03:43:28.118Z,19.23
2019-03-19T03:46:16.659Z,16.00
2019-03-19T03:49:05.420Z,16.30
2019-03-19T03:51:54.337Z,16.63
2019-03-19T03:54:43.314Z,19.83
2019-03-19T03:57:32.382Z,15.03
2019-03-19T04:00:21.604Z,14.10
2019-03-19T04:03:11.023Z,23.00
2019-03-19T04:05:59.774Z,18.37
2019-03-19T04:08:48.309Z,31.37
2019-03-19T04:11:37.418Z,35.80
2019-03-19T04:14:26.637Z,42.43
2019-03-19T04:17:15.497Z,38.77
2019-03-19T04:20:05.554Z,35.90
2019-03-19T04:22:54.973Z,43.40
2019-03-19T04:25:43.684Z,50.40
2019-03-19T04:28:32.872Z,45.20
2019-03-19T04:31:21.715Z,40.13
2019-03-19T04:34:10.637Z,46.60
2019-03-19T04:37:00.083Z,40.20
2019-03-19T04:39:48.583Z,30.20
2019-03-19T04:42:37.805Z,24.03
2019-03-19T04:45:26.762Z,26.97
2019-03-19T04:48:15.699Z,20.23
2019-03-19T04:51:04.864Z,20.80
2019-03-19T04:53:54.016Z,26.10
2019-03-19T04:56:42.607Z,29.07
2019-03-19T04:59:31.850Z,33.17
2019-03-19T05:02:21.236Z,40.10
2019-03-19T05:05:10.452Z,45.33
2019-03-19T05:07:59.691Z,42.70
2019-03-19T05:10:48.653Z,44.70
2019-03-19T05:13:38.076Z,40.13
2019-03-19T05:16:26.900Z,57.10
2019-03-19T05:19:16.186Z,53.83
2019-03-19T05:22:05.896Z,55.13
2019-03-19T05:24:55.161Z,55.73
2019-03-19T05:27:43.968Z,60.53
2019-03-19T05:30:33.531Z,62.50
2019-03-19T05:33:22.712Z,60.40
2019-03-19T05:36:12.468Z,55.80
2019-03-19T05:39:01.368Z,56.00
2019-03-19T05:41:49.849Z,42.30
2019-03-19T05:44:39.513Z,39.23
2019-03-19T05:47:36.749Z,43.77
2019-03-19T05:50:19.656Z,29.73
2019-03-19T05:53:08.752Z,30.53
2019-03-19T05:55:57.730Z,31.00
2019-03-19T05:58:46.964Z,27.83
2019-03-19T06:01:35.932Z,36.93
2019-03-19T06:04:24.607Z,24.23
2019-03-19T06:07:13.779Z,33.03
2019-03-19T06:10:02.884Z,50.20
2019-03-19T06:12:51.930Z,34.93
2019-03-19T06:15:43.821Z,31.80
2019-03-19T06:18:35.320Z,26.10
2019-03-19T06:21:24.609Z,26.50
2019-03-19T06:24:13.802Z,25.40
2019-03-19T06:27:03.270Z,25.60
2019-03-19T06:29:54.434Z,24.83
2019-03-19T06:32:43.836Z,23.07
2019-03-19T06:35:32.498Z,18.10
2019-03-19T06:38:21.897Z,27.93
2019-03-19T06:41:10.855Z,28.07
2019-03-19T06:43:59.743Z,39.83
2019-03-19T06:46:48.605Z,37.30
2019-03-19T06:49:37.602Z,39.73
2019-03-19T06:52:26.949Z,29.97
2019-03-19T06:55:15.202Z,34.30
2019-03-19T06:58:10.879Z,28.23
2019-03-19T07:00:55.241Z,41.27
2019-03-19T07:03:43.939Z,21.73
2019-03-19T07:06:33.334Z,29.27
2019-03-19T07:09:22.993Z,19.07
2019-03-19T07:12:12.682Z,29.20
2019-03-19T07:15:01.510Z,29.40
2019-03-19T07:17:50.603Z,21.30
2019-03-19T07:20:39.101Z,30.63
2019-03-19T07:23:28.740Z,30.33
2019-03-19T07:26:18.152Z,20.47
2019-03-19T07:29:07.375Z,17.43
2019-03-19T07:31:55.932Z,21.27
2019-03-19T07:34:44.725Z,14.73
2019-03-19T07:37:34.269Z,18.23
2019-03-19T07:40:22.884Z,19.43
2019-03-19T07:43:12.444Z,21.30
2019-03-19T07:46:01.224Z,25.63
2019-03-19T07:48:50.754Z,26.00
2019-03-19T07:51:39.972Z,25.00
2019-03-19T07:54:29.269Z,20.00
2019-03-19T07:57:20.506Z,16.27
2019-03-19T08:00:12.658Z,20.73
2019-03-19T08:03:01.605Z,30.50
2019-03-19T08:05:50.493Z,18.17
2019-03-19T08:08:40.681Z,19.87
2019-03-19T08:11:29.584Z,22.40
2019-03-19T08:14:18.780Z,15.87
2019-03-19T08:17:07.886Z,28.07
2019-03-19T08:19:57.334Z,19.40
2019-03-19T08:22:46.695Z,21.90
2019-03-19T08:25:35.617Z,21.10
2019-03-19T08:28:24.298Z,29.23
2019-03-19T08:31:13.873Z,23.87
2019-03-19T08:34:03.126Z,24.77
2019-03-19T08:36:51.775Z,14.70
2019-03-19T08:39:40.654Z,20.97
2019-03-19T08:42:29.722Z,21.13
2019-03-19T08:45:18.928Z,18.70
2019-03-19T08:48:08.084Z,25.97
2019-03-19T08:50:57.155Z,31.97
2019-03-19T08:53:46.046Z,28.50
2019-03-19T08:56:35.278Z,30.40
2019-03-19T08:59:24.460Z,23.40
2019-03-19T09:02:13.420Z,31.37
2019-03-19T09:05:03.177Z,24.33
2019-03-19T09:07:52.238Z,28.23
2019-03-19T09:10:42.180Z,19.37
2019-03-19T09:13:30.882Z,20.40
2019-03-19T09:16:20.314Z,25.70
2019-03-19T09:19:09.217Z,25.87
2019-03-19T09:21:58.897Z,25.07
2019-03-19T09:24:48.011Z,22.80
2019-03-19T09:27:37.148Z,24.83
2019-03-19T09:30:26.181Z,22.70
2019-03-19T09:33:15.064Z,19.00
2019-03-19T09:36:04.497Z,14.80
2019-03-19T09:38:54.034Z,20.90
2019-03-19T09:41:43.434Z,21.20
2019-03-19T09:44:32.484Z,15.87
2019-03-19T09:47:21.732Z,17.70
2019-03-19T09:50:11.784Z,18.07
2019-03-19T09:53:00.721Z,12.17
2019-03-19T09:55:50.012Z,9.83
2019-03-19T09:58:38.892Z,20.93
2019-03-19T10:01:27.830Z,17.43
2019-03-19T10:04:16.730Z,11.90
2019-03-19T10:07:06.539Z,9.93
2019-03-19T10:09:55.947Z,9.57
2019-03-19T10:12:45.523Z,10.27
2019-03-19T10:15:34.750Z,14.17
2019-03-19T10:18:24.420Z,9.00
2019-03-19T10:21:12.778Z,13.70
2019-03-19T10:24:01.784Z,10.20
2019-03-19T10:26:51.206Z,17.83
2019-03-19T10:29:40.485Z,8.83
2019-03-19T10:32:31.902Z,16.00
2019-03-19T10:35:21.513Z,18.07
2019-03-19T10:38:10.466Z,9.70
2019-03-19T10:40:58.977Z,9.40
2019-03-19T10:43:47.343Z,8.07
2019-03-19T10:46:36.665Z,7.03
2019-03-19T10:49:25.917Z,16.33
2019-03-19T10:52:15.422Z,10.27
2019-03-19T10:55:05.133Z,9.37
2019-03-19T10:57:53.930Z,10.50
2019-03-19T11:00:43.675Z,10.00
2019-03-19T11:03:32.800Z,13.03
2019-03-19T11:06:21.886Z,13.17
2019-03-19T11:09:10.564Z,9.53
2019-03-19T11:11:59.280Z,19.43
2019-03-19T11:14:48.503Z,8.17
2019-03-19T11:17:37.317Z,13.67
2019-03-19T11:20:26.322Z,9.90
2019-03-19T11:23:15.136Z,9.57
2019-03-19T11:26:04.410Z,13.10
2019-03-19T11:28:53.638Z,13.00
2019-03-19T11:31:42.827Z,6.60
2019-03-19T11:34:32.329Z,14.43
2019-03-19T11:37:40.907Z,13.70
2019-03-19T11:40:30.425Z,8.00
2019-03-19T11:43:19.358Z,8.00
2019-03-19T11:46:08.753Z,13.93
2019-03-19T11:48:59.237Z,9.60
2019-03-19T11:51:48.159Z,9.53
2019-03-19T11:54:37.537Z,9.70
2019-03-19T11:57:26.837Z,8.80
2019-03-19T12:00:21.132Z,10.70
2019-03-19T12:03:16.060Z,11.57
2019-03-19T12:06:02.318Z,13.60
2019-03-19T12:08:51.345Z,8.57
2019-03-19T12:11:41.032Z,9.70
2019-03-19T12:14:29.432Z,7.30
2019-03-19T12:17:18.905Z,7.20
2019-03-19T12:20:08.210Z,8.80
2019-03-19T12:22:57.333Z,10.37
2019-03-19T12:25:45.961Z,7.33
2019-03-19T12:28:39.665Z,12.17
2019-03-19T12:31:25.337Z,10.97
2019-03-19T12:34:14.191Z,8.53
2019-03-19T12:37:03.175Z,9.40
2019-03-19T12:39:52.026Z,14.60
2019-03-19T12:42:40.913Z,11.03
2019-03-19T12:45:30.213Z,9.10
2019-03-19T12:48:19.377Z,9.40
2019-03-19T12:51:08.003Z,5.50
2019-03-19T12:53:56.975Z,10.13
2019-03-19T12:56:46.134Z,9.60
2019-03-19T12:59:35.009Z,13.67
2019-03-19T13:02:24.065Z,10.03
2019-03-19T13:05:13.252Z,7.97
2019-03-19T13:08:01.956Z,6.20
2019-03-19T13:10:51.064Z,10.90
2019-03-19T13:13:41.043Z,10.10
2019-03-19T13:16:29.870Z,10.63
2019-03-19T13:19:18.919Z,9.63
2019-03-19T13:22:07.857Z,6.00
2019-03-19T13:24:56.749Z,7.37
2019-03-19T13:27:45.904Z,11.10
2019-03-19T13:30:44.638Z,6.83
2019-03-19T13:33:25.601Z,4.30
2019-03-19T13:36:14.789Z,11.33
2019-03-19T13:39:04.779Z,8.20
2019-03-19T13:41:53.759Z,8.77
2019-03-19T13:44:43.573Z,9.80
2019-03-19T13:47:39.288Z,8.90
2019-03-19T13:50:28.728Z,7.17
2019-03-19T13:53:20.327Z,8.80
2019-03-19T13:56:11.257Z,9.00
2019-03-19T13:59:00.433Z,9.20
2019-03-19T14:01:49.542Z,6.67
2019-03-19T14:04:37.907Z,9.57
2019-03-19T14:07:27.309Z,11.20
2019-03-19T14:10:21.883Z,8.60
2019-03-19T14:13:11.072Z,10.33
2019-03-19T14:16:04.600Z,13.47
2019-03-19T14:18:53.131Z,11.40
2019-03-19T14:21:44.026Z,13.33
2019-03-19T14:24:33.544Z,11.17
2019-03-19T14:27:24.887Z,9.90
2019-03-19T14:30:15.964Z,9.00
2019-03-19T14:33:07.454Z,10.20
2019-03-19T14:35:57.086Z,9.70
2019-03-19T14:38:50.334Z,11.77
2019-03-19T14:41:40.036Z,14.60
2019-03-19T14:44:29.020Z,9.63
2019-03-19T14:47:18.006Z,5.90
2019-03-19T14:50:07.753Z,7.20
2019-03-19T14:52:57.156Z,10.17
2019-03-19T14:55:46.043Z,7.07
2019-03-19T14:58:35.319Z,8.60
2019-03-19T15:01:24.300Z,11.07
2019-03-19T15:04:13.633Z,9.80
2019-03-19T15:07:03.161Z,12.47
2019-03-19T15:09:52.058Z,9.97
2019-03-19T15:12:41.590Z,10.53
2019-03-19T15:15:30.796Z,12.27
2019-03-19T15:18:19.781Z,6.93
2019-03-19T15:21:08.938Z,14.60
2019-03-19T15:23:57.357Z,10.60
2019-03-19T15:26:45.935Z,11.23
2019-03-19T15:29:34.670Z,7.50
2019-03-19T15:32:23.398Z,6.97
2019-03-19T15:35:12.567Z,14.73
2019-03-19T15:38:01.741Z,15.43
2019-03-19T15:40:51.038Z,8.47
2019-03-19T15:43:40.183Z,13.00
2019-03-19T15:46:29.333Z,9.10
2019-03-19T15:49:18.037Z,15.03
2019-03-19T15:52:06.995Z,14.97
2019-03-19T15:54:56.251Z,13.47
2019-03-19T15:57:45.707Z,20.30
2019-03-19T16:00:34.807Z,14.00
2019-03-19T16:03:23.805Z,10.80
2019-03-19T16:06:12.504Z,12.50
2019-03-19T16:09:03.351Z,17.03
2019-03-19T16:11:52.931Z,15.30
2019-03-19T16:14:42.484Z,8.47
2019-03-19T16:17:31.541Z,10.23
2019-03-19T16:20:20.967Z,14.93
2019-03-19T16:23:10.661Z,9.87
2019-03-19T16:25:59.697Z,8.23
2019-03-19T16:28:48.930Z,10.57
2019-03-19T16:31:38.590Z,13.40
2019-03-19T16:34:27.808Z,15.30
2019-03-19T16:37:17.074Z,10.73
2019-03-19T16:40:10.977Z,11.33
2019-03-19T16:43:00.157Z,11.00
2019-03-19T16:45:49.761Z,12.97
2019-03-19T16:48:38.723Z,12.23
2019-03-19T16:51:27.024Z,11.03
2019-03-19T16:54:16.714Z,17.00
2019-03-19T16:57:06.271Z,13.97
2019-03-19T16:59:55.116Z,17.17
2019-03-19T17:02:44.018Z,10.53
2019-03-19T17:05:32.702Z,18.23
2019-03-19T17:08:21.980Z,9.63
2019-03-19T17:11:10.614Z,12.53
2019-03-19T17:13:59.974Z,11.50
2019-03-19T17:16:48.538Z,17.30
2019-03-19T17:19:37.846Z,9.33
2019-03-19T17:22:27.781Z,10.37
2019-03-19T17:25:00.511Z,17.17
2019-03-19T17:27:49.659Z,14.67
2019-03-19T17:30:38.597Z,10.83
2019-03-19T17:33:27.584Z,10.33
2019-03-19T17:36:16.404Z,10.30
2019-03-19T17:39:24.480Z,8.23
2019-03-19T17:42:13.481Z,13.77
2019-03-19T17:45:02.043Z,13.27
2019-03-19T17:47:50.694Z,15.20
2019-03-19T17:50:39.464Z,11.23
2019-03-19T17:53:28.850Z,10.60
2019-03-19T17:56:17.463Z,9.80
2019-03-19T17:59:06.483Z,15.90
2019-03-19T18:01:55.706Z,9.90
2019-03-19T18:04:44.811Z,12.40
2019-03-19T18:07:33.989Z,14.07
2019-03-19T18:10:23.706Z,12.30
2019-03-19T18:13:13.122Z,11.63
2019-03-19T18:16:01.751Z,11.43
2019-03-19T18:18:51.150Z,15.87
2019-03-19T18:21:40.350Z,9.50
2019-03-19T18:24:29.021Z,17.43
2019-03-19T18:27:19.951Z,20.83
2019-03-19T18:30:16.705Z,12.53
2019-03-19T18:33:05.451Z,21.30
2019-03-19T18:35:56.428Z,16.10
2019-03-19T18:38:44.810Z,11.40
2019-03-19T18:41:35.492Z,14.00
2019-03-19T18:44:24.972Z,14.30
2019-03-19T18:47:14.174Z,14.50
2019-03-19T18:50:04.093Z,19.20
2019-03-19T18:52:53.532Z,14.87
2019-03-19T18:55:42.707Z,13.97
2019-03-19T18:58:31.758Z,18.27
2019-03-19T19:01:20.876Z,14.80
2019-03-19T19:04:09.577Z,20.33
2019-03-19T19:06:50.327Z,14.93
2019-03-19T19:09:39.363Z,13.43
2019-03-19T19:12:30.882Z,14.27
2019-03-19T19:15:19.749Z,20.27
2019-03-19T19:18:08.757Z,20.73
2019-03-19T19:20:57.594Z,12.93
2019-03-19T19:23:32.619Z,18.47
2019-03-19T19:26:02.708Z,13.10
2019-03-19T19:28:51.840Z,15.53
2019-03-19T19:31:24.272Z,20.40
2019-03-19T19:33:54.367Z,15.10
2019-03-19T19:36:24.447Z,14.33
2019-03-19T19:38:55.033Z,16.33
2019-03-19T19:41:25.498Z,12.80
2019-03-19T19:43:55.531Z,23.57
2019-03-19T19:46:25.690Z,14.67
2019-03-19T19:49:01.248Z,14.00
2019-03-19T19:51:31.530Z,21.90
2019-03-19T19:54:01.779Z,16.27
2019-03-19T19:56:32.350Z,13.50
2019-03-19T19:59:02.949Z,17.77
2019-03-19T20:01:33.337Z,18.33
2019-03-19T20:04:03.622Z,16.53
2019-03-19T20:06:33.959Z,15.83
2019-03-19T20:09:06.129Z,13.90
2019-03-19T20:11:38.540Z,18.80
2019-03-19T20:14:08.327Z,14.80
2019-03-19T20:16:38.546Z,17.13
2019-03-19T20:19:11.769Z,16.60
2019-03-19T20:21:42.064Z,12.47
2019-03-19T20:24:12.240Z,17.40
2019-03-19T20:26:42.549Z,15.60
2019-03-19T20:29:32.105Z,18.33
2019-03-19T20:32:21.842Z,17.83
2019-03-19T20:34:55.773Z,21.10
2019-03-19T20:37:26.018Z,13.20
2019-03-19T20:39:56.260Z,18.03
2019-03-19T20:42:26.749Z,19.10
2019-03-19T20:44:56.935Z,15.00
2019-03-19T20:47:27.205Z,18.10
2019-03-19T20:49:57.674Z,22.53
2019-03-19T20:52:27.818Z,17.13
2019-03-19T20:54:58.124Z,16.87
2019-03-19T20:57:28.364Z,19.37
2019-03-19T20:59:58.972Z,15.40
2019-03-19T21:02:29.232Z,15.03
2019-03-19T21:04:59.849Z,15.53
2019-03-19T21:07:30.438Z,16.23
2019-03-19T21:10:04.798Z,18.80
2019-03-19T21:12:35.223Z,17.40
2019-03-19T21:15:25.192Z,23.93
2019-03-19T21:18:14.823Z,15.93
2019-03-19T21:21:03.916Z,19.70
2019-03-19T21:23:53.121Z,22.37
2019-03-19T21:26:43.882Z,24.23
2019-03-19T21:29:33.345Z,22.73
2019-03-19T21:32:23.066Z,25.77
2019-03-19T21:35:12.436Z,20.73
2019-03-19T21:38:01.344Z,26.87
2019-03-19T21:40:53.011Z,22.80
2019-03-19T21:43:42.173Z,22.43
2019-03-19T21:46:31.818Z,23.70
2019-03-19T21:49:21.177Z,15.03
2019-03-19T21:52:11.109Z,21.40
2019-03-19T21:55:00.123Z,16.00
2019-03-19T21:57:49.835Z,19.73
2019-03-19T22:00:38.985Z,24.87
2019-03-19T22:03:27.406Z,15.07
2019-03-19T22:06:16.895Z,24.57
2019-03-19T22:08:46.950Z,23.90
2019-03-19T22:11:35.561Z,18.90
2019-03-19T22:14:24.541Z,15.77
2019-03-19T22:17:13.883Z,12.67
2019-03-19T22:20:04.409Z,17.57
2019-03-19T22:22:53.547Z,23.27
2019-03-19T22:25:42.566Z,16.43
2019-03-19T22:28:31.374Z,18.40
2019-03-19T22:31:20.627Z,20.03
2019-03-19T22:34:14.377Z,20.70
2019-03-19T22:36:57.234Z,18.90
2019-03-19T22:39:46.317Z,18.10
2019-03-19T22:42:35.504Z,18.03
2019-03-19T22:45:24.745Z,15.37
2019-03-19T22:48:13.974Z,15.90
2019-03-19T22:51:03.461Z,20.43
2019-03-19T22:53:52.662Z,22.93
2019-03-19T22:56:42.946Z,21.33
2019-03-19T22:59:13.261Z,21.10
2019-03-19T23:02:02.095Z,15.13
2019-03-19T23:04:50.909Z,20.37
2019-03-19T23:07:40.626Z,19.90
2019-03-19T23:10:29.646Z,20.73
2019-03-19T23:12:59.846Z,18.07
2019-03-19T23:15:49.343Z,22.23
2019-03-19T23:18:38.733Z,20.97
2019-03-19T23:21:27.945Z,18.87
2019-03-19T23:24:16.796Z,17.33
2019-03-19T23:27:12.836Z,27.27
2019-03-19T23:30:01.474Z,20.50
2019-03-19T23:32:50.686Z,19.63
2019-03-19T23:35:21.028Z,24.03
2019-03-19T23:37:51.229Z,24.43
2019-03-19T23:40:40.707Z,20.30
2019-03-19T23:43:30.137Z,19.57
2019-03-19T23:46:18.669Z,21.33
2019-03-19T23:49:07.948Z,31.47
2019-03-19T23:51:56.752Z,20.53
2019-03-19T23:54:45.940Z,19.13
2019-03-19T23:57:35.039Z,20.47
